sensor_id;sensor_type;location;lat;lon;timestamp;temperature;humidity
52036;DHT22;38046;49.448;32.074;2022-11-24T00:00:50;4.90;83.70
52036;DHT22;38046;49.448;32.074;2022-11-24T00:03:16;4.90;83.60
52036;DHT22;38046;49.448;32.074;2022-11-24T00:05:42;4.90;83.60
52036;DHT22;38046;49.448;32.074;2022-11-24T00:08:08;4.90;83.80
52036;DHT22;38046;49.448;32.074;2022-11-24T00:10:34;4.90;83.80
52036;DHT22;38046;49.448;32.074;2022-11-24T00:12:59;4.90;83.80
52036;DHT22;38046;49.448;32.074;2022-11-24T00:15:25;4.90;83.90
52036;DHT22;38046;49.448;32.074;2022-11-24T00:17:51;4.90;83.80
52036;DHT22;38046;49.448;32.074;2022-11-24T00:20:16;4.90;83.80
52036;DHT22;38046;49.448;32.074;2022-11-24T00:22:42;4.90;83.90
52036;DHT22;38046;49.448;32.074;2022-11-24T00:25:08;4.90;83.90
52036;DHT22;38046;49.448;32.074;2022-11-24T00:27:33;4.90;83.70
52036;DHT22;38046;49.448;32.074;2022-11-24T00:29:59;4.90;83.80
52036;DHT22;38046;49.448;32.074;2022-11-24T00:32:28;4.90;83.90
52036;DHT22;38046;49.448;32.074;2022-11-24T00:34:54;4.90;83.70
52036;DHT22;38046;49.448;32.074;2022-11-24T00:37:19;4.90;83.70
52036;DHT22;38046;49.448;32.074;2022-11-24T00:39:45;4.90;83.60
52036;DHT22;38046;49.448;32.074;2022-11-24T00:42:11;4.90;83.40
52036;DHT22;38046;49.448;32.074;2022-11-24T00:44:36;4.80;83.50
52036;DHT22;38046;49.448;32.074;2022-11-24T00:47:02;4.80;83.60
52036;DHT22;38046;49.448;32.074;2022-11-24T00:49:27;4.80;83.60
52036;DHT22;38046;49.448;32.074;2022-11-24T00:51:53;4.80;83.80
52036;DHT22;38046;49.448;32.074;2022-11-24T00:54:19;4.80;84.00
52036;DHT22;38046;49.448;32.074;2022-11-24T00:56:44;4.80;84.00
52036;DHT22;38046;49.448;32.074;2022-11-24T00:59:10;4.80;84.00
52036;DHT22;38046;49.448;32.074;2022-11-24T01:01:36;4.80;83.90
52036;DHT22;38046;49.448;32.074;2022-11-24T01:04:02;4.80;83.70
52036;DHT22;38046;49.448;32.074;2022-11-24T01:06:29;4.80;83.60
52036;DHT22;38046;49.448;32.074;2022-11-24T01:08:56;4.70;83.60
52036;DHT22;38046;49.448;32.074;2022-11-24T01:11:25;4.70;83.80
52036;DHT22;38046;49.448;32.074;2022-11-24T01:13:55;4.70;84.00
52036;DHT22;38046;49.448;32.074;2022-11-24T01:16:30;4.70;84.00
52036;DHT22;38046;49.448;32.074;2022-11-24T01:18:56;4.70;83.90
52036;DHT22;38046;49.448;32.074;2022-11-24T01:21:22;4.70;84.10
52036;DHT22;38046;49.448;32.074;2022-11-24T01:23:48;4.70;84.20
52036;DHT22;38046;49.448;32.074;2022-11-24T01:26:18;4.70;84.30
52036;DHT22;38046;49.448;32.074;2022-11-24T01:28:44;4.70;84.40
52036;DHT22;38046;49.448;32.074;2022-11-24T01:31:10;4.70;84.30
52036;DHT22;38046;49.448;32.074;2022-11-24T01:33:37;4.70;84.30
52036;DHT22;38046;49.448;32.074;2022-11-24T01:36:04;4.60;84.40
52036;DHT22;38046;49.448;32.074;2022-11-24T01:38:30;4.70;84.50
52036;DHT22;38046;49.448;32.074;2022-11-24T01:41:00;4.60;84.50
52036;DHT22;38046;49.448;32.074;2022-11-24T01:43:26;4.60;84.40
52036;DHT22;38046;49.448;32.074;2022-11-24T01:45:53;4.60;84.50
52036;DHT22;38046;49.448;32.074;2022-11-24T01:48:31;4.60;84.60
52036;DHT22;38046;49.448;32.074;2022-11-24T01:51:21;4.60;84.60
52036;DHT22;38046;49.448;32.074;2022-11-24T01:53:53;4.60;84.70
52036;DHT22;38046;49.448;32.074;2022-11-24T01:56:19;4.60;84.80
52036;DHT22;38046;49.448;32.074;2022-11-24T01:58:46;4.60;84.50
52036;DHT22;38046;49.448;32.074;2022-11-24T02:01:12;4.50;84.60
52036;DHT22;38046;49.448;32.074;2022-11-24T02:03:40;4.50;85.00
52036;DHT22;38046;49.448;32.074;2022-11-24T02:06:14;4.50;85.10
52036;DHT22;38046;49.448;32.074;2022-11-24T02:08:50;4.50;85.20
52036;DHT22;38046;49.448;32.074;2022-11-24T02:11:18;4.50;85.30
52036;DHT22;38046;49.448;32.074;2022-11-24T02:13:47;4.50;85.30
52036;DHT22;38046;49.448;32.074;2022-11-24T02:16:14;4.50;85.30
52036;DHT22;38046;49.448;32.074;2022-11-24T02:18:41;4.50;85.30
52036;DHT22;38046;49.448;32.074;2022-11-24T02:21:09;4.50;85.30
52036;DHT22;38046;49.448;32.074;2022-11-24T02:23:43;4.50;85.40
52036;DHT22;38046;49.448;32.074;2022-11-24T02:26:45;4.50;85.50
52036;DHT22;38046;49.448;32.074;2022-11-24T02:29:12;4.40;85.40
52036;DHT22;38046;49.448;32.074;2022-11-24T02:31:48;4.40;85.60
52036;DHT22;38046;49.448;32.074;2022-11-24T02:34:15;4.40;85.70
52036;DHT22;38046;49.448;32.074;2022-11-24T02:36:41;4.30;85.90
52036;DHT22;38046;49.448;32.074;2022-11-24T02:39:11;4.30;86.10
52036;DHT22;38046;49.448;32.074;2022-11-24T02:41:42;4.30;86.30
52036;DHT22;38046;49.448;32.074;2022-11-24T02:44:08;4.20;86.50
52036;DHT22;38046;49.448;32.074;2022-11-24T02:46:35;4.20;86.70
52036;DHT22;38046;49.448;32.074;2022-11-24T02:49:01;4.10;86.70
52036;DHT22;38046;49.448;32.074;2022-11-24T02:51:26;4.10;87.00
52036;DHT22;38046;49.448;32.074;2022-11-24T02:53:53;4.10;87.20
52036;DHT22;38046;49.448;32.074;2022-11-24T02:56:19;4.10;87.20
52036;DHT22;38046;49.448;32.074;2022-11-24T02:58:44;4.10;87.70
52036;DHT22;38046;49.448;32.074;2022-11-24T03:01:10;4.10;87.80
52036;DHT22;38046;49.448;32.074;2022-11-24T03:03:36;4.00;88.00
52036;DHT22;38046;49.448;32.074;2022-11-24T03:06:02;4.00;88.20
52036;DHT22;38046;49.448;32.074;2022-11-24T03:08:27;4.10;88.40
52036;DHT22;38046;49.448;32.074;2022-11-24T03:10:53;4.00;88.60
52036;DHT22;38046;49.448;32.074;2022-11-24T03:13:19;4.00;88.70
52036;DHT22;38046;49.448;32.074;2022-11-24T03:15:44;4.10;89.00
52036;DHT22;38046;49.448;32.074;2022-11-24T03:18:10;4.10;89.20
52036;DHT22;38046;49.448;32.074;2022-11-24T03:20:36;4.10;89.20
52036;DHT22;38046;49.448;32.074;2022-11-24T03:23:01;4.10;89.20
52036;DHT22;38046;49.448;32.074;2022-11-24T03:25:27;4.20;89.40
52036;DHT22;38046;49.448;32.074;2022-11-24T03:27:55;4.20;89.30
52036;DHT22;38046;49.448;32.074;2022-11-24T03:30:21;4.20;89.60
52036;DHT22;38046;49.448;32.074;2022-11-24T03:32:47;4.20;89.60
52036;DHT22;38046;49.448;32.074;2022-11-24T03:35:15;4.20;89.60
52036;DHT22;38046;49.448;32.074;2022-11-24T03:37:40;4.10;89.70
52036;DHT22;38046;49.448;32.074;2022-11-24T03:40:06;4.10;89.80
52036;DHT22;38046;49.448;32.074;2022-11-24T03:42:32;4.10;90.00
52036;DHT22;38046;49.448;32.074;2022-11-24T03:44:58;4.10;90.10
52036;DHT22;38046;49.448;32.074;2022-11-24T03:47:23;4.10;90.20
52036;DHT22;38046;49.448;32.074;2022-11-24T03:49:49;4.10;90.30
52036;DHT22;38046;49.448;32.074;2022-11-24T03:52:15;4.10;90.30
52036;DHT22;38046;49.448;32.074;2022-11-24T03:54:40;4.10;90.30
52036;DHT22;38046;49.448;32.074;2022-11-24T03:57:06;4.10;90.40
52036;DHT22;38046;49.448;32.074;2022-11-24T03:59:32;4.10;90.50
52036;DHT22;38046;49.448;32.074;2022-11-24T04:01:58;4.10;90.60
52036;DHT22;38046;49.448;32.074;2022-11-24T04:04:23;4.10;90.70
52036;DHT22;38046;49.448;32.074;2022-11-24T04:06:49;4.10;90.80
52036;DHT22;38046;49.448;32.074;2022-11-24T04:09:15;4.10;90.80
52036;DHT22;38046;49.448;32.074;2022-11-24T04:11:40;4.10;90.80
52036;DHT22;38046;49.448;32.074;2022-11-24T04:14:24;4.10;90.80
52036;DHT22;38046;49.448;32.074;2022-11-24T04:16:50;4.10;90.80
52036;DHT22;38046;49.448;32.074;2022-11-24T04:19:15;4.10;90.90
52036;DHT22;38046;49.448;32.074;2022-11-24T04:21:41;4.10;91.00
52036;DHT22;38046;49.448;32.074;2022-11-24T04:24:07;4.10;90.90
52036;DHT22;38046;49.448;32.074;2022-11-24T04:26:32;4.10;91.00
52036;DHT22;38046;49.448;32.074;2022-11-24T04:28:58;4.10;91.10
52036;DHT22;38046;49.448;32.074;2022-11-24T04:31:24;4.10;91.20
52036;DHT22;38046;49.448;32.074;2022-11-24T04:33:49;4.10;91.20
52036;DHT22;38046;49.448;32.074;2022-11-24T04:36:15;4.10;91.30
52036;DHT22;38046;49.448;32.074;2022-11-24T04:38:40;4.10;91.30
52036;DHT22;38046;49.448;32.074;2022-11-24T04:41:06;4.20;91.40
52036;DHT22;38046;49.448;32.074;2022-11-24T04:43:32;4.20;91.50
52036;DHT22;38046;49.448;32.074;2022-11-24T04:46:01;4.20;91.60
52036;DHT22;38046;49.448;32.074;2022-11-24T04:48:27;4.20;91.60
52036;DHT22;38046;49.448;32.074;2022-11-24T04:50:53;4.20;91.60
52036;DHT22;38046;49.448;32.074;2022-11-24T04:53:19;4.20;91.70
52036;DHT22;38046;49.448;32.074;2022-11-24T04:55:45;4.20;91.80
52036;DHT22;38046;49.448;32.074;2022-11-24T04:58:10;4.20;91.90
52036;DHT22;38046;49.448;32.074;2022-11-24T05:00:37;4.30;91.90
52036;DHT22;38046;49.448;32.074;2022-11-24T05:03:03;4.30;91.90
52036;DHT22;38046;49.448;32.074;2022-11-24T05:05:29;4.30;92.00
52036;DHT22;38046;49.448;32.074;2022-11-24T05:07:57;4.30;92.10
52036;DHT22;38046;49.448;32.074;2022-11-24T05:10:22;4.30;92.20
52036;DHT22;38046;49.448;32.074;2022-11-24T05:13:05;4.30;92.50
52036;DHT22;38046;49.448;32.074;2022-11-24T05:15:31;4.40;92.30
52036;DHT22;38046;49.448;32.074;2022-11-24T05:17:56;4.40;92.40
52036;DHT22;38046;49.448;32.074;2022-11-24T05:20:22;4.40;92.40
52036;DHT22;38046;49.448;32.074;2022-11-24T05:22:48;4.40;92.50
52036;DHT22;38046;49.448;32.074;2022-11-24T05:25:14;4.40;92.60
52036;DHT22;38046;49.448;32.074;2022-11-24T05:27:40;4.40;92.70
52036;DHT22;38046;49.448;32.074;2022-11-24T05:30:06;4.50;92.80
52036;DHT22;38046;49.448;32.074;2022-11-24T05:32:32;4.50;92.90
52036;DHT22;38046;49.448;32.074;2022-11-24T05:34:58;4.50;93.00
52036;DHT22;38046;49.448;32.074;2022-11-24T05:37:27;4.50;93.00
52036;DHT22;38046;49.448;32.074;2022-11-24T05:39:53;4.60;93.10
52036;DHT22;38046;49.448;32.074;2022-11-24T05:42:19;4.60;93.10
52036;DHT22;38046;49.448;32.074;2022-11-24T05:45:04;4.60;93.20
52036;DHT22;38046;49.448;32.074;2022-11-24T05:47:30;4.60;93.30
52036;DHT22;38046;49.448;32.074;2022-11-24T05:49:56;4.60;93.40
52036;DHT22;38046;49.448;32.074;2022-11-24T05:52:22;4.60;93.40
52036;DHT22;38046;49.448;32.074;2022-11-24T05:54:48;4.70;93.50
52036;DHT22;38046;49.448;32.074;2022-11-24T05:57:15;4.70;93.60
52036;DHT22;38046;49.448;32.074;2022-11-24T05:59:41;4.70;93.70
52036;DHT22;38046;49.448;32.074;2022-11-24T06:02:07;4.70;93.70
52036;DHT22;38046;49.448;32.074;2022-11-24T06:04:32;4.80;93.80
52036;DHT22;38046;49.448;32.074;2022-11-24T06:06:58;4.80;93.90
52036;DHT22;38046;49.448;32.074;2022-11-24T06:09:23;4.80;93.90
52036;DHT22;38046;49.448;32.074;2022-11-24T06:11:49;4.80;93.90
52036;DHT22;38046;49.448;32.074;2022-11-24T06:14:15;4.90;94.00
52036;DHT22;38046;49.448;32.074;2022-11-24T06:16:40;4.90;94.00
52036;DHT22;38046;49.448;32.074;2022-11-24T06:19:06;4.90;93.90
52036;DHT22;38046;49.448;32.074;2022-11-24T06:21:32;4.90;93.90
52036;DHT22;38046;49.448;32.074;2022-11-24T06:23:57;5.00;94.00
52036;DHT22;38046;49.448;32.074;2022-11-24T06:26:23;5.00;94.00
52036;DHT22;38046;49.448;32.074;2022-11-24T06:28:49;5.00;94.00
52036;DHT22;38046;49.448;32.074;2022-11-24T06:31:14;5.10;94.10
52036;DHT22;38046;49.448;32.074;2022-11-24T06:33:40;5.10;94.00
52036;DHT22;38046;49.448;32.074;2022-11-24T06:36:09;5.10;94.10
52036;DHT22;38046;49.448;32.074;2022-11-24T06:38:36;5.10;94.30
52036;DHT22;38046;49.448;32.074;2022-11-24T06:41:04;5.10;94.20
52036;DHT22;38046;49.448;32.074;2022-11-24T06:43:31;5.20;94.30
52036;DHT22;38046;49.448;32.074;2022-11-24T06:45:57;5.20;94.30
52036;DHT22;38046;49.448;32.074;2022-11-24T06:48:24;5.20;94.60
52036;DHT22;38046;49.448;32.074;2022-11-24T06:50:50;5.20;94.30
52036;DHT22;38046;49.448;32.074;2022-11-24T06:53:16;5.30;94.40
52036;DHT22;38046;49.448;32.074;2022-11-24T06:55:42;5.30;94.50
52036;DHT22;38046;49.448;32.074;2022-11-24T06:58:08;5.30;94.50
52036;DHT22;38046;49.448;32.074;2022-11-24T07:00:38;5.30;94.50
52036;DHT22;38046;49.448;32.074;2022-11-24T07:03:04;5.30;94.50
52036;DHT22;38046;49.448;32.074;2022-11-24T07:05:30;5.40;94.60
52036;DHT22;38046;49.448;32.074;2022-11-24T07:07:59;5.40;94.60
52036;DHT22;38046;49.448;32.074;2022-11-24T07:10:25;5.40;94.70
52036;DHT22;38046;49.448;32.074;2022-11-24T07:12:54;5.40;94.80
52036;DHT22;38046;49.448;32.074;2022-11-24T07:15:22;5.40;94.70
52036;DHT22;38046;49.448;32.074;2022-11-24T07:17:48;5.40;94.80
52036;DHT22;38046;49.448;32.074;2022-11-24T07:20:14;5.50;94.90
52036;DHT22;38046;49.448;32.074;2022-11-24T07:22:40;5.50;94.90
52036;DHT22;38046;49.448;32.074;2022-11-24T07:25:06;5.50;94.90
52036;DHT22;38046;49.448;32.074;2022-11-24T07:27:34;5.50;94.90
52036;DHT22;38046;49.448;32.074;2022-11-24T07:30:00;5.50;94.90
52036;DHT22;38046;49.448;32.074;2022-11-24T07:32:27;5.60;95.10
52036;DHT22;38046;49.448;32.074;2022-11-24T07:34:53;5.50;95.00
52036;DHT22;38046;49.448;32.074;2022-11-24T07:37:19;5.60;95.10
52036;DHT22;38046;49.448;32.074;2022-11-24T07:39:44;5.60;95.10
52036;DHT22;38046;49.448;32.074;2022-11-24T07:42:10;5.60;95.20
52036;DHT22;38046;49.448;32.074;2022-11-24T07:44:45;5.60;95.20
52036;DHT22;38046;49.448;32.074;2022-11-24T07:47:13;5.70;95.30
52036;DHT22;38046;49.448;32.074;2022-11-24T07:49:39;5.70;95.20
52036;DHT22;38046;49.448;32.074;2022-11-24T07:52:06;5.70;95.30
52036;DHT22;38046;49.448;32.074;2022-11-24T07:54:40;5.70;95.30
52036;DHT22;38046;49.448;32.074;2022-11-24T07:57:06;5.80;95.30
52036;DHT22;38046;49.448;32.074;2022-11-24T07:59:47;5.80;95.20
52036;DHT22;38046;49.448;32.074;2022-11-24T08:02:16;5.80;95.00
52036;DHT22;38046;49.448;32.074;2022-11-24T08:04:41;5.90;95.00
52036;DHT22;38046;49.448;32.074;2022-11-24T08:07:07;5.90;95.00
52036;DHT22;38046;49.448;32.074;2022-11-24T08:09:36;5.90;94.90
52036;DHT22;38046;49.448;32.074;2022-11-24T08:12:02;5.90;94.90
52036;DHT22;38046;49.448;32.074;2022-11-24T08:14:35;5.90;94.80
52036;DHT22;38046;49.448;32.074;2022-11-24T08:17:01;5.90;94.80
52036;DHT22;38046;49.448;32.074;2022-11-24T08:19:26;5.90;94.80
52036;DHT22;38046;49.448;32.074;2022-11-24T08:21:55;5.90;94.90
52036;DHT22;38046;49.448;32.074;2022-11-24T08:24:21;6.00;94.90
52036;DHT22;38046;49.448;32.074;2022-11-24T08:26:47;6.00;94.90
52036;DHT22;38046;49.448;32.074;2022-11-24T08:29:15;6.00;94.80
52036;DHT22;38046;49.448;32.074;2022-11-24T08:31:44;6.00;94.70
52036;DHT22;38046;49.448;32.074;2022-11-24T08:34:13;6.00;94.80
52036;DHT22;38046;49.448;32.074;2022-11-24T08:36:41;6.00;94.70
52036;DHT22;38046;49.448;32.074;2022-11-24T08:39:08;6.00;95.00
52036;DHT22;38046;49.448;32.074;2022-11-24T08:41:37;6.00;94.80
52036;DHT22;38046;49.448;32.074;2022-11-24T08:44:03;6.00;94.70
52036;DHT22;38046;49.448;32.074;2022-11-24T08:46:29;6.10;94.80
52036;DHT22;38046;49.448;32.074;2022-11-24T08:48:55;6.00;94.60
52036;DHT22;38046;49.448;32.074;2022-11-24T08:51:23;6.00;94.80
52036;DHT22;38046;49.448;32.074;2022-11-24T08:53:56;6.00;94.80
52036;DHT22;38046;49.448;32.074;2022-11-24T08:56:23;6.00;94.80
52036;DHT22;38046;49.448;32.074;2022-11-24T08:58:49;6.00;94.80
52036;DHT22;38046;49.448;32.074;2022-11-24T09:01:16;6.00;94.90
52036;DHT22;38046;49.448;32.074;2022-11-24T09:03:43;6.10;94.90
52036;DHT22;38046;49.448;32.074;2022-11-24T09:06:09;6.10;94.90
52036;DHT22;38046;49.448;32.074;2022-11-24T09:08:44;6.00;94.90
52036;DHT22;38046;49.448;32.074;2022-11-24T09:11:13;6.00;94.80
52036;DHT22;38046;49.448;32.074;2022-11-24T09:13:43;6.10;94.90
52036;DHT22;38046;49.448;32.074;2022-11-24T09:16:14;6.10;95.00
52036;DHT22;38046;49.448;32.074;2022-11-24T09:18:43;6.10;95.00
52036;DHT22;38046;49.448;32.074;2022-11-24T09:21:12;6.10;94.90
52036;DHT22;38046;49.448;32.074;2022-11-24T09:23:47;6.10;95.00
52036;DHT22;38046;49.448;32.074;2022-11-24T09:26:16;6.10;94.90
52036;DHT22;38046;49.448;32.074;2022-11-24T09:28:45;6.10;95.00
52036;DHT22;38046;49.448;32.074;2022-11-24T09:31:17;6.10;94.80
52036;DHT22;38046;49.448;32.074;2022-11-24T09:33:46;6.10;94.90
52036;DHT22;38046;49.448;32.074;2022-11-24T09:36:15;6.10;94.80
52036;DHT22;38046;49.448;32.074;2022-11-24T09:38:41;6.10;94.90
52036;DHT22;38046;49.448;32.074;2022-11-24T09:52:12;6.20;94.90
52036;DHT22;38046;49.448;32.074;2022-11-24T09:54:49;6.20;95.00
52036;DHT22;38046;49.448;32.074;2022-11-24T09:57:17;6.20;95.00
52036;DHT22;38046;49.448;32.074;2022-11-24T09:59:44;6.30;95.10
52036;DHT22;38046;49.448;32.074;2022-11-24T10:02:11;6.30;95.20
52036;DHT22;38046;49.448;32.074;2022-11-24T10:04:42;6.30;95.10
52036;DHT22;38046;49.448;32.074;2022-11-24T10:07:21;6.30;95.00
52036;DHT22;38046;49.448;32.074;2022-11-24T10:10:16;6.40;94.90
52036;DHT22;38046;49.448;32.074;2022-11-24T10:12:56;6.40;94.70
52036;DHT22;38046;49.448;32.074;2022-11-24T10:15:51;6.40;94.80
52036;DHT22;38046;49.448;32.074;2022-11-24T10:18:27;6.40;94.60
52036;DHT22;38046;49.448;32.074;2022-11-24T10:26:50;6.40;94.60
52036;DHT22;38046;49.448;32.074;2022-11-24T10:29:27;6.40;94.90
52036;DHT22;38046;49.448;32.074;2022-11-24T10:31:55;6.40;94.80
52036;DHT22;38046;49.448;32.074;2022-11-24T10:37:20;6.40;94.80
52036;DHT22;38046;49.448;32.074;2022-11-24T10:42:28;6.40;94.80
52036;DHT22;38046;49.448;32.074;2022-11-24T10:44:58;6.40;94.60
52036;DHT22;38046;49.448;32.074;2022-11-24T10:47:25;6.40;94.80
52036;DHT22;38046;49.448;32.074;2022-11-24T10:50:21;6.50;94.90
52036;DHT22;38046;49.448;32.074;2022-11-24T10:53:04;6.50;94.50
52036;DHT22;38046;49.448;32.074;2022-11-24T11:00:49;6.40;94.60
52036;DHT22;38046;49.448;32.074;2022-11-24T11:03:23;6.50;94.50
52036;DHT22;38046;49.448;32.074;2022-11-24T11:06:11;6.50;94.50
52036;DHT22;38046;49.448;32.074;2022-11-24T11:08:38;6.40;94.30
52036;DHT22;38046;49.448;32.074;2022-11-24T11:11:20;6.40;94.30
52036;DHT22;38046;49.448;32.074;2022-11-24T11:14:09;6.40;94.40
52036;DHT22;38046;49.448;32.074;2022-11-24T11:16:41;6.40;94.20
52036;DHT22;38046;49.448;32.074;2022-11-24T11:19:27;6.30;94.40
52036;DHT22;38046;49.448;32.074;2022-11-24T11:22:12;6.30;94.40
52036;DHT22;38046;49.448;32.074;2022-11-24T11:24:41;6.30;94.60
52036;DHT22;38046;49.448;32.074;2022-11-24T11:27:20;6.30;94.80
52036;DHT22;38046;49.448;32.074;2022-11-24T11:29:46;6.40;94.60
52036;DHT22;38046;49.448;32.074;2022-11-24T11:32:22;6.40;94.70
52036;DHT22;38046;49.448;32.074;2022-11-24T11:34:50;6.40;94.80
52036;DHT22;38046;49.448;32.074;2022-11-24T11:37:17;6.40;94.70
52036;DHT22;38046;49.448;32.074;2022-11-24T11:39:49;6.40;94.80
52036;DHT22;38046;49.448;32.074;2022-11-24T11:45:03;6.40;94.80
52036;DHT22;38046;49.448;32.074;2022-11-24T11:47:42;6.40;94.80
52036;DHT22;38046;49.448;32.074;2022-11-24T11:50:14;6.40;94.80
52036;DHT22;38046;49.448;32.074;2022-11-24T12:01:34;6.40;94.80
52036;DHT22;38046;49.448;32.074;2022-11-24T12:09:52;6.50;95.00
52036;DHT22;38046;49.448;32.074;2022-11-24T12:22:46;6.40;94.10
52036;DHT22;38046;49.448;32.074;2022-11-24T12:25:22;6.40;94.40
52036;DHT22;38046;49.448;32.074;2022-11-24T12:39:41;6.50;95.30
52036;DHT22;38046;49.448;32.074;2022-11-24T12:50:11;6.50;95.00
52036;DHT22;38046;49.448;32.074;2022-11-24T12:52:45;6.50;95.10
52036;DHT22;38046;49.448;32.074;2022-11-24T12:55:16;6.50;95.30
52036;DHT22;38046;49.448;32.074;2022-11-24T12:57:58;6.50;95.30
52036;DHT22;38046;49.448;32.074;2022-11-24T13:03:29;6.60;95.40
52036;DHT22;38046;49.448;32.074;2022-11-24T13:06:19;6.60;95.50
52036;DHT22;38046;49.448;32.074;2022-11-24T13:08:46;6.60;95.30
52036;DHT22;38046;49.448;32.074;2022-11-24T13:14:11;6.70;95.40
52036;DHT22;38046;49.448;32.074;2022-11-24T13:17:23;6.70;95.30
52036;DHT22;38046;49.448;32.074;2022-11-24T13:22:55;6.80;95.20
52036;DHT22;38046;49.448;32.074;2022-11-24T13:25:33;6.80;95.30
52036;DHT22;38046;49.448;32.074;2022-11-24T13:28:01;6.80;95.30
52036;DHT22;38046;49.448;32.074;2022-11-24T13:44:24;7.00;95.10
52036;DHT22;38046;49.448;32.074;2022-11-24T13:49:22;7.10;95.00
52036;DHT22;38046;49.448;32.074;2022-11-24T13:54:46;7.10;94.50
52036;DHT22;38046;49.448;32.074;2022-11-24T13:57:34;7.20;94.60
52036;DHT22;38046;49.448;32.074;2022-11-24T14:00:01;7.20;94.30
52036;DHT22;38046;49.448;32.074;2022-11-24T14:02:28;7.20;94.50
52036;DHT22;38046;49.448;32.074;2022-11-24T14:04:55;7.20;94.50
52036;DHT22;38046;49.448;32.074;2022-11-24T14:07:25;7.20;94.30
52036;DHT22;38046;49.448;32.074;2022-11-24T14:09:51;7.20;94.30
52036;DHT22;38046;49.448;32.074;2022-11-24T14:12:22;7.20;94.30
52036;DHT22;38046;49.448;32.074;2022-11-24T14:14:52;7.20;94.40
52036;DHT22;38046;49.448;32.074;2022-11-24T14:17:26;7.20;94.40
52036;DHT22;38046;49.448;32.074;2022-11-24T14:19:54;7.20;94.40
52036;DHT22;38046;49.448;32.074;2022-11-24T14:22:29;7.20;94.40
52036;DHT22;38046;49.448;32.074;2022-11-24T14:24:59;7.20;94.60
52036;DHT22;38046;49.448;32.074;2022-11-24T14:27:45;7.20;94.50
52036;DHT22;38046;49.448;32.074;2022-11-24T14:32:55;7.20;94.60
52036;DHT22;38046;49.448;32.074;2022-11-24T14:35:23;7.20;94.40
52036;DHT22;38046;49.448;32.074;2022-11-24T14:37:49;7.20;94.60
52036;DHT22;38046;49.448;32.074;2022-11-24T14:40:38;7.20;94.70
52036;DHT22;38046;49.448;32.074;2022-11-24T14:43:28;7.30;94.50
52036;DHT22;38046;49.448;32.074;2022-11-24T14:45:55;7.20;94.60
52036;DHT22;38046;49.448;32.074;2022-11-24T14:48:30;7.30;94.70
52036;DHT22;38046;49.448;32.074;2022-11-24T14:53:49;7.30;94.60
52036;DHT22;38046;49.448;32.074;2022-11-24T14:56:35;7.20;94.80
52036;DHT22;38046;49.448;32.074;2022-11-24T14:59:19;7.20;94.70
52036;DHT22;38046;49.448;32.074;2022-11-24T15:01:50;7.30;94.90
52036;DHT22;38046;49.448;32.074;2022-11-24T15:07:26;7.30;94.80
52036;DHT22;38046;49.448;32.074;2022-11-24T15:09:54;7.30;95.10
52036;DHT22;38046;49.448;32.074;2022-11-24T15:15:21;7.30;95.20
52036;DHT22;38046;49.448;32.074;2022-11-24T15:17:46;7.30;95.30
52036;DHT22;38046;49.448;32.074;2022-11-24T15:20:28;7.40;95.40
52036;DHT22;38046;49.448;32.074;2022-11-24T15:23:26;7.40;95.20
52036;DHT22;38046;49.448;32.074;2022-11-24T15:25:53;7.50;95.00
52036;DHT22;38046;49.448;32.074;2022-11-24T15:28:20;7.50;95.10
52036;DHT22;38046;49.448;32.074;2022-11-24T15:33:48;7.50;94.90
52036;DHT22;38046;49.448;32.074;2022-11-24T15:36:17;7.50;94.80
52036;DHT22;38046;49.448;32.074;2022-11-24T15:38:47;7.60;94.60
52036;DHT22;38046;49.448;32.074;2022-11-24T15:41:21;7.60;94.60
52036;DHT22;38046;49.448;32.074;2022-11-24T15:43:52;7.50;94.50
52036;DHT22;38046;49.448;32.074;2022-11-24T15:46:28;7.50;94.60
52036;DHT22;38046;49.448;32.074;2022-11-24T15:48:54;7.60;95.00
52036;DHT22;38046;49.448;32.074;2022-11-24T15:51:24;7.60;94.60
52036;DHT22;38046;49.448;32.074;2022-11-24T15:53:52;7.60;94.80
52036;DHT22;38046;49.448;32.074;2022-11-24T15:56:30;7.60;94.60
52036;DHT22;38046;49.448;32.074;2022-11-24T15:59:00;7.60;94.60
52036;DHT22;38046;49.448;32.074;2022-11-24T16:01:30;7.60;94.50
52036;DHT22;38046;49.448;32.074;2022-11-24T16:03:57;7.60;94.50
52036;DHT22;38046;49.448;32.074;2022-11-24T16:06:23;7.60;94.40
52036;DHT22;38046;49.448;32.074;2022-11-24T16:09:13;7.60;94.30
52036;DHT22;38046;49.448;32.074;2022-11-24T16:11:40;7.60;94.20
52036;DHT22;38046;49.448;32.074;2022-11-24T16:14:09;7.50;94.30
52036;DHT22;38046;49.448;32.074;2022-11-24T16:16:38;7.50;94.10
52036;DHT22;38046;49.448;32.074;2022-11-24T16:19:05;7.50;94.20
52036;DHT22;38046;49.448;32.074;2022-11-24T16:21:31;7.50;94.20
52036;DHT22;38046;49.448;32.074;2022-11-24T16:23:56;7.50;94.30
52036;DHT22;38046;49.448;32.074;2022-11-24T16:26:22;7.40;94.30
52036;DHT22;38046;49.448;32.074;2022-11-24T16:28:48;7.50;94.40
52036;DHT22;38046;49.448;32.074;2022-11-24T16:31:17;7.40;94.20
52036;DHT22;38046;49.448;32.074;2022-11-24T16:33:44;7.40;94.40
52036;DHT22;38046;49.448;32.074;2022-11-24T16:36:19;7.40;94.40
52036;DHT22;38046;49.448;32.074;2022-11-24T16:38:45;7.40;94.30
52036;DHT22;38046;49.448;32.074;2022-11-24T16:41:11;7.40;94.40
52036;DHT22;38046;49.448;32.074;2022-11-24T16:43:38;7.30;94.40
52036;DHT22;38046;49.448;32.074;2022-11-24T16:48:40;7.30;94.60
52036;DHT22;38046;49.448;32.074;2022-11-24T16:51:08;7.30;94.80
52036;DHT22;38046;49.448;32.074;2022-11-24T16:53:38;7.30;94.90
52036;DHT22;38046;49.448;32.074;2022-11-24T16:56:05;7.30;94.90
52036;DHT22;38046;49.448;32.074;2022-11-24T16:58:36;7.30;95.00
52036;DHT22;38046;49.448;32.074;2022-11-24T17:03:57;7.30;95.20
52036;DHT22;38046;49.448;32.074;2022-11-24T17:06:27;7.30;95.40
52036;DHT22;38046;49.448;32.074;2022-11-24T17:08:54;7.40;95.00
52036;DHT22;38046;49.448;32.074;2022-11-24T17:11:22;7.40;95.00
52036;DHT22;38046;49.448;32.074;2022-11-24T17:13:49;7.40;94.90
52036;DHT22;38046;49.448;32.074;2022-11-24T17:16:21;7.40;95.00
52036;DHT22;38046;49.448;32.074;2022-11-24T17:18:48;7.40;94.90
52036;DHT22;38046;49.448;32.074;2022-11-24T17:21:22;7.40;94.80
52036;DHT22;38046;49.448;32.074;2022-11-24T17:23:55;7.40;94.70
52036;DHT22;38046;49.448;32.074;2022-11-24T17:26:22;7.40;94.60
52036;DHT22;38046;49.448;32.074;2022-11-24T17:28:50;7.40;94.80
52036;DHT22;38046;49.448;32.074;2022-11-24T17:31:21;7.50;94.60
52036;DHT22;38046;49.448;32.074;2022-11-24T17:33:48;7.40;94.60
52036;DHT22;38046;49.448;32.074;2022-11-24T17:36:17;7.40;94.50
52036;DHT22;38046;49.448;32.074;2022-11-24T17:38:43;7.40;94.50
52036;DHT22;38046;49.448;32.074;2022-11-24T17:41:09;7.40;94.80
52036;DHT22;38046;49.448;32.074;2022-11-24T17:43:35;7.40;94.70
52036;DHT22;38046;49.448;32.074;2022-11-24T17:46:03;7.40;94.80